sensor_id;sensor_type;location;lat;lon;timestamp;pressure;altitude;pressure_sealevel;temperature;humidity
5522;BME280;2783;48.730;8.006;2024-03-22T00:00:30;100821.72;;;13.23;95.79
5522;BME280;2783;48.730;8.006;2024-03-22T00:02:56;100783.19;;;13.00;95.17
5522;BME280;2783;48.730;8.006;2024-03-22T00:05:21;100821.28;;;13.07;95.81
5522;BME280;2783;48.730;8.006;2024-03-22T00:07:47;100824.16;;;12.99;96.34
5522;BME280;2783;48.730;8.006;2024-03-22T00:10:13;100816.66;;;12.83;96.73
5522;BME280;2783;48.730;8.006;2024-03-22T00:12:39;100819.38;;;12.81;97.27
5522;BME280;2783;48.730;8.006;2024-03-22T00:15:05;100815.06;;;12.76;97.93
5522;BME280;2783;48.730;8.006;2024-03-22T00:17:30;100807.28;;;12.68;97.73
5522;BME280;2783;48.730;8.006;2024-03-22T00:19:56;100806.59;;;12.62;98.15
5522;BME280;2783;48.730;8.006;2024-03-22T00:22:22;100801.44;;;12.54;98.63
5522;BME280;2783;48.730;8.006;2024-03-22T00:24:47;100802.53;;;12.47;98.97
5522;BME280;2783;48.730;8.006;2024-03-22T00:27:13;100809.78;;;12.42;99.34
5522;BME280;2783;48.730;8.006;2024-03-22T00:29:38;100801.13;;;12.34;99.56
5522;BME280;2783;48.730;8.006;2024-03-22T00:32:04;100804.72;;;12.33;100.00
5522;BME280;2783;48.730;8.006;2024-03-22T00:34:30;100806.63;;;12.28;100.00
5522;BME280;2783;48.730;8.006;2024-03-22T00:36:55;100804.91;;;12.27;100.00
5522;BME280;2783;48.730;8.006;2024-03-22T00:39:23;100761.03;;;12.05;100.00
5522;BME280;2783;48.730;8.006;2024-03-22T00:41:48;100795.22;;;12.23;100.00
5522;BME280;2783;48.730;8.006;2024-03-22T00:44:13;100787.91;;;12.30;100.00
5522;BME280;2783;48.730;8.006;2024-03-22T00:46:39;100788.84;;;12.29;100.00
5522;BME280;2783;48.730;8.006;2024-03-22T00:49:04;100776.41;;;12.28;100.00
5522;BME280;2783;48.730;8.006;2024-03-22T00:51:30;100763.72;;;12.36;100.00
5522;BME280;2783;48.730;8.006;2024-03-22T00:53:55;100759.28;;;12.36;100.00
5522;BME280;2783;48.730;8.006;2024-03-22T00:56:20;100763.69;;;12.37;100.00
5522;BME280;2783;48.730;8.006;2024-03-22T00:58:46;100757.59;;;12.34;100.00
5522;BME280;2783;48.730;8.006;2024-03-22T01:01:11;100764.75;;;12.32;100.00
5522;BME280;2783;48.730;8.006;2024-03-22T01:03:37;100760.25;;;12.32;100.00
5522;BME280;2783;48.730;8.006;2024-03-22T01:06:02;100750.47;;;12.33;100.00
5522;BME280;2783;48.730;8.006;2024-03-22T01:08:28;100753.09;;;12.34;100.00
5522;BME280;2783;48.730;8.006;2024-03-22T01:10:53;100747.78;;;12.34;100.00
5522;BME280;2783;48.730;8.006;2024-03-22T01:13:19;100745.94;;;12.36;100.00
5522;BME280;2783;48.730;8.006;2024-03-22T01:15:44;100734.34;;;12.37;100.00
5522;BME280;2783;48.730;8.006;2024-03-22T01:18:11;100737.75;;;12.42;100.00
5522;BME280;2783;48.730;8.006;2024-03-22T01:20:37;100738.59;;;12.44;100.00
5522;BME280;2783;48.730;8.006;2024-03-22T01:23:02;100735.03;;;12.45;100.00
5522;BME280;2783;48.730;8.006;2024-03-22T01:25:28;100732.25;;;12.48;100.00
5522;BME280;2783;48.730;8.006;2024-03-22T01:27:54;100733.25;;;12.44;100.00
5522;BME280;2783;48.730;8.006;2024-03-22T01:30:20;100732.38;;;12.44;100.00
5522;BME280;2783;48.730;8.006;2024-03-22T01:32:45;100735.03;;;12.44;100.00
5522;BME280;2783;48.730;8.006;2024-03-22T01:35:11;100737.75;;;12.42;100.00
5522;BME280;2783;48.730;8.006;2024-03-22T01:37:36;100730.72;;;12.40;100.00
5522;BME280;2783;48.730;8.006;2024-03-22T01:40:03;100724.59;;;12.36;100.00
5522;BME280;2783;48.730;8.006;2024-03-22T01:42:29;100729.13;;;12.33;100.00
5522;BME280;2783;48.730;8.006;2024-03-22T01:44:55;100727.41;;;12.32;100.00
5522;BME280;2783;48.730;8.006;2024-03-22T01:47:20;100697.66;;;12.15;100.00
5522;BME280;2783;48.730;8.006;2024-03-22T01:49:47;100724.59;;;12.36;100.00
5522;BME280;2783;48.730;8.006;2024-03-22T01:52:14;100724.41;;;12.42;100.00
5522;BME280;2783;48.730;8.006;2024-03-22T01:54:39;100726.09;;;12.46;100.00
5522;BME280;2783;48.730;8.006;2024-03-22T01:57:05;100714.38;;;12.52;100.00
5522;BME280;2783;48.730;8.006;2024-03-22T01:59:31;100707.88;;;12.60;100.00
5522;BME280;2783;48.730;8.006;2024-03-22T02:01:58;100715.75;;;12.65;100.00
5522;BME280;2783;48.730;8.006;2024-03-22T02:04:23;100711.28;;;12.65;100.00
5522;BME280;2783;48.730;8.006;2024-03-22T02:06:48;100708.53;;;12.68;100.00
5522;BME280;2783;48.730;8.006;2024-03-22T02:09:14;100679.53;;;12.56;100.00
5522;BME280;2783;48.730;8.006;2024-03-22T02:11:40;100705.56;;;12.77;100.00
5522;BME280;2783;48.730;8.006;2024-03-22T02:14:06;100712.56;;;12.81;99.60
5522;BME280;2783;48.730;8.006;2024-03-22T02:16:31;100708.78;;;12.88;99.82
5522;BME280;2783;48.730;8.006;2024-03-22T02:18:56;100713.16;;;12.91;99.41
5522;BME280;2783;48.730;8.006;2024-03-22T02:21:22;100715.78;;;12.92;99.10
5522;BME280;2783;48.730;8.006;2024-03-22T02:23:47;100705.94;;;12.94;99.00
5522;BME280;2783;48.730;8.006;2024-03-22T02:26:13;100705.88;;;12.96;98.99
5522;BME280;2783;48.730;8.006;2024-03-22T02:28:38;100701.41;;;12.96;98.94
5522;BME280;2783;48.730;8.006;2024-03-22T02:31:04;100687.34;;;12.91;98.81
5522;BME280;2783;48.730;8.006;2024-03-22T02:33:30;100692.47;;;12.97;98.30
5522;BME280;2783;48.730;8.006;2024-03-22T02:35:55;100686.31;;;12.95;98.28
5522;BME280;2783;48.730;8.006;2024-03-22T02:38:21;100688.88;;;12.98;98.17
5522;BME280;2783;48.730;8.006;2024-03-22T02:40:49;100688.81;;;13.01;98.10
5522;BME280;2783;48.730;8.006;2024-03-22T02:43:14;100689.69;;;13.02;98.03
5522;BME280;2783;48.730;8.006;2024-03-22T02:45:40;100678.97;;;13.03;97.48
5522;BME280;2783;48.730;8.006;2024-03-22T02:48:06;100682.34;;;13.08;97.92
5522;BME280;2783;48.730;8.006;2024-03-22T02:50:35;100682.31;;;13.10;96.76
5522;BME280;2783;48.730;8.006;2024-03-22T02:53:01;100681.44;;;13.09;97.21
5522;BME280;2783;48.730;8.006;2024-03-22T02:55:26;100675.22;;;13.09;97.05
5522;BME280;2783;48.730;8.006;2024-03-22T02:57:52;100681.44;;;13.09;96.76
5522;BME280;2783;48.730;8.006;2024-03-22T03:00:18;100671.63;;;13.10;96.99
5522;BME280;2783;48.730;8.006;2024-03-22T03:02:45;100672.59;;;13.07;96.96
5522;BME280;2783;48.730;8.006;2024-03-22T03:05:10;100679.78;;;13.05;96.67
5522;BME280;2783;48.730;8.006;2024-03-22T03:07:35;100676.19;;;13.06;97.30
5522;BME280;2783;48.730;8.006;2024-03-22T03:10:01;100670.78;;;13.08;97.28
5522;BME280;2783;48.730;8.006;2024-03-22T03:12:26;100624.53;;;12.80;97.18
5522;BME280;2783;48.730;8.006;2024-03-22T03:14:52;100664.44;;;13.12;97.05
5522;BME280;2783;48.730;8.006;2024-03-22T03:17:17;100670.56;;;13.15;97.17
5522;BME280;2783;48.730;8.006;2024-03-22T03:19:43;100666.94;;;13.16;97.32
5522;BME280;2783;48.730;8.006;2024-03-22T03:22:09;100670.44;;;13.18;96.89
5522;BME280;2783;48.730;8.006;2024-03-22T03:24:34;100671.28;;;13.20;96.75
5522;BME280;2783;48.730;8.006;2024-03-22T03:27:00;100667.94;;;13.14;96.44
5522;BME280;2783;48.730;8.006;2024-03-22T03:29:25;100672.50;;;13.10;96.02
5522;BME280;2783;48.730;8.006;2024-03-22T03:31:51;100662.75;;;13.09;95.90
5522;BME280;2783;48.730;8.006;2024-03-22T03:34:16;100665.31;;;13.12;95.55
5522;BME280;2783;48.730;8.006;2024-03-22T03:36:42;100665.44;;;13.09;95.44
5522;BME280;2783;48.730;8.006;2024-03-22T03:39:07;100664.53;;;13.09;95.87
5522;BME280;2783;48.730;8.006;2024-03-22T03:41:32;100656.59;;;13.07;96.47
5522;BME280;2783;48.730;8.006;2024-03-22T03:43:58;100668.03;;;13.11;96.42
5522;BME280;2783;48.730;8.006;2024-03-22T03:46:24;100657.38;;;13.11;96.44
5522;BME280;2783;48.730;8.006;2024-03-22T03:48:49;100662.66;;;13.12;97.06
5522;BME280;2783;48.730;8.006;2024-03-22T03:51:14;100659.16;;;13.10;96.75
5522;BME280;2783;48.730;8.006;2024-03-22T03:53:40;100661.94;;;13.07;96.97
5522;BME280;2783;48.730;8.006;2024-03-22T03:56:05;100651.34;;;13.04;97.76
5522;BME280;2783;48.730;8.006;2024-03-22T03:58:31;100646.16;;;12.98;97.89
5522;BME280;2783;48.730;8.006;2024-03-22T04:00:56;100647.19;;;12.94;98.16
5522;BME280;2783;48.730;8.006;2024-03-22T04:03:22;100646.34;;;12.92;98.78
5522;BME280;2783;48.730;8.006;2024-03-22T04:05:56;100586.09;;;12.58;99.07
5522;BME280;2783;48.730;8.006;2024-03-22T04:08:22;100641.94;;;12.91;99.02
5522;BME280;2783;48.730;8.006;2024-03-22T04:10:54;100642.84;;;12.90;99.53
5522;BME280;2783;48.730;8.006;2024-03-22T04:13:24;100645.53;;;12.90;99.77
5522;BME280;2783;48.730;8.006;2024-03-22T04:15:49;100646.56;;;12.86;99.86
5522;BME280;2783;48.730;8.006;2024-03-22T04:18:14;100637.81;;;12.81;100.00
5522;BME280;2783;48.730;8.006;2024-03-22T04:20:40;100612.66;;;12.61;99.86
5522;BME280;2783;48.730;8.006;2024-03-22T04:23:05;100649.56;;;12.76;100.00
5522;BME280;2783;48.730;8.006;2024-03-22T04:25:31;100654.00;;;12.75;100.00
5522;BME280;2783;48.730;8.006;2024-03-22T04:27:56;100654.13;;;12.72;100.00
5522;BME280;2783;48.730;8.006;2024-03-22T04:30:22;100648.09;;;12.66;100.00
5522;BME280;2783;48.730;8.006;2024-03-22T04:32:47;100647.31;;;12.62;100.00
5522;BME280;2783;48.730;8.006;2024-03-22T04:35:13;100650.09;;;12.59;100.00
5522;BME280;2783;48.730;8.006;2024-03-22T04:37:39;100647.50;;;12.56;100.00
5522;BME280;2783;48.730;8.006;2024-03-22T04:40:04;100643.97;;;12.56;100.00
5522;BME280;2783;48.730;8.006;2024-03-22T04:42:30;100651.22;;;12.51;100.00
5522;BME280;2783;48.730;8.006;2024-03-22T04:44:56;100655.72;;;12.49;100.00
5522;BME280;2783;48.730;8.006;2024-03-22T04:47:23;100651.38;;;12.46;100.00
5522;BME280;2783;48.730;8.006;2024-03-22T04:49:48;100651.47;;;12.43;100.00
5522;BME280;2783;48.730;8.006;2024-03-22T04:52:13;100646.13;;;12.43;100.00
5522;BME280;2783;48.730;8.006;2024-03-22T04:54:39;100647.09;;;12.41;100.00
5522;BME280;2783;48.730;8.006;2024-03-22T04:57:04;100640.22;;;12.32;100.00
5522;BME280;2783;48.730;8.006;2024-03-22T04:59:30;100650.94;;;12.31;100.00
5522;BME280;2783;48.730;8.006;2024-03-22T05:01:55;100643.00;;;12.29;100.00
5522;BME280;2783;48.730;8.006;2024-03-22T05:04:20;100644.84;;;12.27;100.00
5522;BME280;2783;48.730;8.006;2024-03-22T05:06:46;100604.56;;;12.07;100.00
5522;BME280;2783;48.730;8.006;2024-03-22T05:09:11;100636.13;;;12.22;100.00
5522;BME280;2783;48.730;8.006;2024-03-22T05:11:37;100636.00;;;12.25;100.00
5522;BME280;2783;48.730;8.006;2024-03-22T05:14:02;100636.13;;;12.22;100.00
5522;BME280;2783;48.730;8.006;2024-03-22T05:16:28;100629.94;;;12.20;100.00
5522;BME280;2783;48.730;8.006;2024-03-22T05:18:54;100626.38;;;12.20;100.00
5522;BME280;2783;48.730;8.006;2024-03-22T05:21:19;100626.38;;;12.20;100.00
5522;BME280;2783;48.730;8.006;2024-03-22T05:23:44;100630.78;;;12.22;100.00
5522;BME280;2783;48.730;8.006;2024-03-22T05:26:10;100627.31;;;12.19;100.00
5522;BME280;2783;48.730;8.006;2024-03-22T05:28:35;100621.06;;;12.20;100.00
5522;BME280;2783;48.730;8.006;2024-03-22T05:31:01;100625.44;;;12.22;100.00
5522;BME280;2783;48.730;8.006;2024-03-22T05:33:26;100625.25;;;12.28;100.00
5522;BME280;2783;48.730;8.006;2024-03-22T05:35:52;100605.88;;;12.22;100.00
5522;BME280;2783;48.730;8.006;2024-03-22T05:38:17;100613.75;;;12.26;100.00
5522;BME280;2783;48.730;8.006;2024-03-22T05:40:45;100613.75;;;12.26;100.00
5522;BME280;2783;48.730;8.006;2024-03-22T05:43:13;100607.50;;;12.27;100.00
5522;BME280;2783;48.730;8.006;2024-03-22T05:45:38;100617.16;;;12.31;100.00
5522;BME280;2783;48.730;8.006;2024-03-22T05:48:04;100614.38;;;12.34;100.00
5522;BME280;2783;48.730;8.006;2024-03-22T05:50:29;100611.50;;;12.42;100.00
5522;BME280;2783;48.730;8.006;2024-03-22T05:52:55;100605.13;;;12.46;100.00
5522;BME280;2783;48.730;8.006;2024-03-22T05:55:20;100600.53;;;12.51;100.00
5522;BME280;2783;48.730;8.006;2024-03-22T05:57:45;100597.69;;;12.57;100.00
5522;BME280;2783;48.730;8.006;2024-03-22T06:00:11;100609.91;;;12.64;100.00
5522;BME280;2783;48.730;8.006;2024-03-22T06:02:38;100601.84;;;12.65;100.00
5522;BME280;2783;48.730;8.006;2024-03-22T06:05:04;100596.38;;;12.70;100.00
5522;BME280;2783;48.730;8.006;2024-03-22T06:07:30;100604.69;;;12.87;100.00
5522;BME280;2783;48.730;8.006;2024-03-22T06:10:00;100611.50;;;12.97;100.00
5522;BME280;2783;48.730;8.006;2024-03-22T06:12:26;100604.59;;;13.17;100.00
5522;BME280;2783;48.730;8.006;2024-03-22T06:14:51;100598.63;;;13.36;100.00
5522;BME280;2783;48.730;8.006;2024-03-22T06:17:16;100612.25;;;13.53;100.00
5522;BME280;2783;48.730;8.006;2024-03-22T06:19:42;100610.97;;;13.64;100.00
5522;BME280;2783;48.730;8.006;2024-03-22T06:22:07;100607.19;;;13.70;99.50
5522;BME280;2783;48.730;8.006;2024-03-22T06:24:33;100607.91;;;13.75;99.06
5522;BME280;2783;48.730;8.006;2024-03-22T06:26:58;100607.91;;;13.75;97.69
5522;BME280;2783;48.730;8.006;2024-03-22T06:29:24;100603.59;;;13.71;96.47
5522;BME280;2783;48.730;8.006;2024-03-22T06:31:49;100605.53;;;13.67;95.54
5522;BME280;2783;48.730;8.006;2024-03-22T06:34:15;100604.53;;;13.70;94.57
5522;BME280;2783;48.730;8.006;2024-03-22T06:36:41;100601.69;;;13.74;94.85
5522;BME280;2783;48.730;8.006;2024-03-22T06:39:07;100594.44;;;13.78;94.70
5522;BME280;2783;48.730;8.006;2024-03-22T06:41:34;100591.16;;;13.70;94.10
5522;BME280;2783;48.730;8.006;2024-03-22T06:43:59;100580.06;;;13.57;93.05
5522;BME280;2783;48.730;8.006;2024-03-22T06:46:25;100592.91;;;13.71;92.79
5522;BME280;2783;48.730;8.006;2024-03-22T06:48:50;100573.75;;;13.83;91.31
5522;BME280;2783;48.730;8.006;2024-03-22T06:51:16;100583.63;;;14.04;91.83
5522;BME280;2783;48.730;8.006;2024-03-22T06:53:41;100582.84;;;14.25;90.68
5522;BME280;2783;48.730;8.006;2024-03-22T06:56:07;100587.34;;;14.69;90.95
5522;BME280;2783;48.730;8.006;2024-03-22T06:58:37;100587.66;;;15.66;89.96
5522;BME280;2783;48.730;8.006;2024-03-22T07:01:03;100580.06;;;16.53;83.28
5522;BME280;2783;48.730;8.006;2024-03-22T07:03:29;100577.69;;;17.70;79.58
5522;BME280;2783;48.730;8.006;2024-03-22T07:05:55;100578.75;;;19.99;69.22
5522;BME280;2783;48.730;8.006;2024-03-22T07:08:20;100573.00;;;22.05;56.55
5522;BME280;2783;48.730;8.006;2024-03-22T07:10:46;100574.13;;;23.24;48.31
5522;BME280;2783;48.730;8.006;2024-03-22T07:13:11;100573.78;;;23.87;46.40
5522;BME280;2783;48.730;8.006;2024-03-22T07:15:36;100582.13;;;24.40;45.35
5522;BME280;2783;48.730;8.006;2024-03-22T07:18:02;100579.66;;;25.24;43.57
5522;BME280;2783;48.730;8.006;2024-03-22T07:20:28;100578.75;;;25.46;42.60
5522;BME280;2783;48.730;8.006;2024-03-22T07:22:53;100584.63;;;25.82;41.49
5522;BME280;2783;48.730;8.006;2024-03-22T07:25:19;100599.06;;;26.15;40.18
5522;BME280;2783;48.730;8.006;2024-03-22T07:27:44;100588.44;;;26.12;39.57
5522;BME280;2783;48.730;8.006;2024-03-22T07:30:11;100581.50;;;25.66;39.87
5522;BME280;2783;48.730;8.006;2024-03-22T07:32:37;100572.09;;;25.28;41.28
5522;BME280;2783;48.730;8.006;2024-03-22T07:35:03;100580.97;;;24.98;42.86
5522;BME280;2783;48.730;8.006;2024-03-22T07:37:28;100573.47;;;25.22;42.83
5522;BME280;2783;48.730;8.006;2024-03-22T07:39:54;100568.41;;;24.64;42.21
5522;BME280;2783;48.730;8.006;2024-03-22T07:42:19;100565.06;;;24.60;42.15
5522;BME280;2783;48.730;8.006;2024-03-22T07:44:46;100567.19;;;24.79;43.17
5522;BME280;2783;48.730;8.006;2024-03-22T07:47:12;100562.47;;;24.70;42.47
5522;BME280;2783;48.730;8.006;2024-03-22T07:49:37;100556.53;;;24.54;42.48
5522;BME280;2783;48.730;8.006;2024-03-22T07:52:03;100557.75;;;24.83;42.46
5522;BME280;2783;48.730;8.006;2024-03-22T07:54:29;100554.31;;;24.70;42.33
5522;BME280;2783;48.730;8.006;2024-03-22T07:56:54;100556.78;;;24.51;43.86
5522;BME280;2783;48.730;8.006;2024-03-22T07:59:20;100547.91;;;24.71;42.76
5522;BME280;2783;48.730;8.006;2024-03-22T08:01:45;100556.28;;;24.57;43.16
5522;BME280;2783;48.730;8.006;2024-03-22T08:04:12;100551.81;;;24.67;42.95
5522;BME280;2783;48.730;8.006;2024-03-22T08:06:37;100549.13;;;24.45;43.86
5522;BME280;2783;48.730;8.006;2024-03-22T08:09:02;100539.00;;;24.25;43.18
5522;BME280;2783;48.730;8.006;2024-03-22T08:11:28;100513.06;;;24.10;43.40
5522;BME280;2783;48.730;8.006;2024-03-22T08:13:54;100544.13;;;23.84;43.62
5522;BME280;2783;48.730;8.006;2024-03-22T08:16:27;100535.59;;;23.77;44.61
5522;BME280;2783;48.730;8.006;2024-03-22T08:18:52;100532.25;;;23.85;44.62
5522;BME280;2783;48.730;8.006;2024-03-22T08:21:18;100530.50;;;23.73;44.86
5522;BME280;2783;48.730;8.006;2024-03-22T08:23:43;100533.78;;;24.00;45.20
5522;BME280;2783;48.730;8.006;2024-03-22T08:26:08;100526.38;;;24.46;44.24
5522;BME280;2783;48.730;8.006;2024-03-22T08:28:34;100525.97;;;24.61;43.70
5522;BME280;2783;48.730;8.006;2024-03-22T08:31:03;100531.81;;;24.46;42.78
5522;BME280;2783;48.730;8.006;2024-03-22T08:33:29;100527.06;;;23.82;43.94
5522;BME280;2783;48.730;8.006;2024-03-22T08:35:54;100521.63;;;23.36;44.46
5522;BME280;2783;48.730;8.006;2024-03-22T08:38:19;100517.47;;;22.72;45.55
5522;BME280;2783;48.730;8.006;2024-03-22T08:40:45;100514.19;;;22.44;47.83
5522;BME280;2783;48.730;8.006;2024-03-22T08:43:10;100521.97;;;22.61;47.14
5522;BME280;2783;48.730;8.006;2024-03-22T08:45:36;100514.31;;;22.78;47.17
5522;BME280;2783;48.730;8.006;2024-03-22T08:48:01;100515.06;;;23.27;46.62
5522;BME280;2783;48.730;8.006;2024-03-22T08:50:27;100502.91;;;23.44;45.36
5522;BME280;2783;48.730;8.006;2024-03-22T08:52:52;100514.06;;;23.63;44.62
5522;BME280;2783;48.730;8.006;2024-03-22T08:55:18;100493.72;;;23.91;44.34
5522;BME280;2783;48.730;8.006;2024-03-22T08:57:43;100496.19;;;24.60;44.73
5522;BME280;2783;48.730;8.006;2024-03-22T09:00:09;100487.06;;;25.24;42.67
5522;BME280;2783;48.730;8.006;2024-03-22T09:02:36;100474.47;;;25.23;43.15
5522;BME280;2783;48.730;8.006;2024-03-22T09:05:02;100486.28;;;25.65;41.61
5522;BME280;2783;48.730;8.006;2024-03-22T09:07:27;100493.41;;;25.25;42.42
5522;BME280;2783;48.730;8.006;2024-03-22T09:09:53;100480.84;;;25.33;41.90
5522;BME280;2783;48.730;8.006;2024-03-22T09:12:19;100483.94;;;25.29;42.66
5522;BME280;2783;48.730;8.006;2024-03-22T09:14:44;100482.75;;;25.53;42.43
5522;BME280;2783;48.730;8.006;2024-03-22T09:17:10;100484.56;;;25.32;43.25
5522;BME280;2783;48.730;8.006;2024-03-22T09:19:35;100474.72;;;25.20;43.17
5522;BME280;2783;48.730;8.006;2024-03-22T09:22:00;100485.91;;;24.63;43.57
5522;BME280;2783;48.730;8.006;2024-03-22T09:24:26;100478.16;;;24.37;44.79
5522;BME280;2783;48.730;8.006;2024-03-22T09:26:51;100477.34;;;24.14;44.77
5522;BME280;2783;48.730;8.006;2024-03-22T09:29:18;100471.72;;;23.61;45.27
5522;BME280;2783;48.730;8.006;2024-03-22T09:31:43;100469.09;;;23.24;46.48
5522;BME280;2783;48.730;8.006;2024-03-22T09:34:08;100462.91;;;23.11;47.10
5522;BME280;2783;48.730;8.006;2024-03-22T09:36:34;100458.69;;;23.31;46.79
5522;BME280;2783;48.730;8.006;2024-03-22T09:39:01;100458.06;;;23.27;45.57
5522;BME280;2783;48.730;8.006;2024-03-22T09:41:27;100455.44;;;22.91;45.62
5522;BME280;2783;48.730;8.006;2024-03-22T09:43:57;100452.22;;;22.86;45.71
5522;BME280;2783;48.730;8.006;2024-03-22T09:46:24;100447.91;;;22.48;45.19
5522;BME280;2783;48.730;8.006;2024-03-22T09:48:49;100427.00;;;22.13;46.57
5522;BME280;2783;48.730;8.006;2024-03-22T09:51:16;100450.16;;;22.17;47.00
5522;BME280;2783;48.730;8.006;2024-03-22T09:53:45;100445.34;;;21.97;46.41
5522;BME280;2783;48.730;8.006;2024-03-22T09:56:14;100457.16;;;21.84;48.39
5522;BME280;2783;48.730;8.006;2024-03-22T09:58:43;100440.34;;;21.91;47.40
5522;BME280;2783;48.730;8.006;2024-03-22T10:01:09;100442.41;;;21.88;48.09
5522;BME280;2783;48.730;8.006;2024-03-22T10:03:36;100440.81;;;21.85;47.38
5522;BME280;2783;48.730;8.006;2024-03-22T10:06:02;100439.28;;;21.69;47.61
5522;BME280;2783;48.730;8.006;2024-03-22T10:08:27;100435.56;;;21.70;48.65
5522;BME280;2783;48.730;8.006;2024-03-22T10:10:52;100427.25;;;21.73;48.41
5522;BME280;2783;48.730;8.006;2024-03-22T10:13:18;100436.03;;;21.76;48.69
5522;BME280;2783;48.730;8.006;2024-03-22T10:15:43;100428.09;;;21.98;48.39
5522;BME280;2783;48.730;8.006;2024-03-22T10:18:10;100421.94;;;21.96;47.41
5522;BME280;2783;48.730;8.006;2024-03-22T10:20:35;100407.16;;;22.13;47.68
5522;BME280;2783;48.730;8.006;2024-03-22T10:23:00;100413.16;;;22.29;47.66
5522;BME280;2783;48.730;8.006;2024-03-22T10:25:29;100375.44;;;22.26;46.87
5522;BME280;2783;48.730;8.006;2024-03-22T10:27:55;100409.25;;;22.33;46.89
5522;BME280;2783;48.730;8.006;2024-03-22T10:30:21;100407.25;;;22.71;46.99
5522;BME280;2783;48.730;8.006;2024-03-22T10:32:48;100402.97;;;23.14;46.23
5522;BME280;2783;48.730;8.006;2024-03-22T10:35:14;100398.53;;;23.24;45.54
5522;BME280;2783;48.730;8.006;2024-03-22T10:37:40;100400.94;;;23.29;45.04
5522;BME280;2783;48.730;8.006;2024-03-22T10:40:07;100390.88;;;23.18;45.16
5522;BME280;2783;48.730;8.006;2024-03-22T10:42:40;100391.69;;;22.97;44.42
5522;BME280;2783;48.730;8.006;2024-03-22T10:45:07;100378.22;;;22.84;44.14
5522;BME280;2783;48.730;8.006;2024-03-22T10:47:35;100378.88;;;22.99;45.15
5522;BME280;2783;48.730;8.006;2024-03-22T10:50:09;100369.66;;;23.23;45.76
5522;BME280;2783;48.730;8.006;2024-03-22T10:52:51;100371.94;;;23.40;44.38
5522;BME280;2783;48.730;8.006;2024-03-22T10:55:24;100370.72;;;23.67;44.22
5522;BME280;2783;48.730;8.006;2024-03-22T10:57:56;100365.03;;;24.03;42.39
5522;BME280;2783;48.730;8.006;2024-03-22T11:00:28;100358.47;;;24.05;43.44
5522;BME280;2783;48.730;8.006;2024-03-22T11:02:55;100349.69;;;23.91;43.27
5522;BME280;2783;48.730;8.006;2024-03-22T11:05:21;100338.56;;;23.94;43.04
5522;BME280;2783;48.730;8.006;2024-03-22T11:07:47;100341.50;;;24.24;43.84
5522;BME280;2783;48.730;8.006;2024-03-22T11:10:13;100332.13;;;24.48;43.74
5522;BME280;2783;48.730;8.006;2024-03-22T11:12:39;100330.16;;;24.50;41.49
5522;BME280;2783;48.730;8.006;2024-03-22T11:15:05;100329.16;;;24.20;41.06
5522;BME280;2783;48.730;8.006;2024-03-22T11:17:31;100324.22;;;24.25;42.42
5522;BME280;2783;48.730;8.006;2024-03-22T11:19:56;100312.25;;;23.94;43.12
5522;BME280;2783;48.730;8.006;2024-03-22T11:22:22;100310.41;;;23.95;41.16
5522;BME280;2783;48.730;8.006;2024-03-22T11:24:47;100307.47;;;23.87;41.27
5522;BME280;2783;48.730;8.006;2024-03-22T11:27:13;100292.91;;;23.77;42.29
5522;BME280;2783;48.730;8.006;2024-03-22T11:29:39;100284.72;;;23.88;44.16
5522;BME280;2783;48.730;8.006;2024-03-22T11:32:09;100292.13;;;24.08;42.18
5522;BME280;2783;48.730;8.006;2024-03-22T11:34:36;100283.19;;;23.52;42.56
5522;BME280;2783;48.730;8.006;2024-03-22T11:37:02;100272.97;;;23.33;43.23
5522;BME280;2783;48.730;8.006;2024-03-22T11:39:28;100263.44;;;23.50;42.96
5522;BME280;2783;48.730;8.006;2024-03-22T11:41:53;100274.47;;;23.37;42.27
5522;BME280;2783;48.730;8.006;2024-03-22T11:44:19;100273.66;;;23.24;42.06
5522;BME280;2783;48.730;8.006;2024-03-22T11:46:46;100263.81;;;23.23;42.76
5522;BME280;2783;48.730;8.006;2024-03-22T11:49:11;100264.41;;;22.83;43.79
5522;BME280;2783;48.730;8.006;2024-03-22T11:51:38;100257.84;;;22.40;44.14
5522;BME280;2783;48.730;8.006;2024-03-22T11:54:03;100255.63;;;22.10;44.45
5522;BME280;2783;48.730;8.006;2024-03-22T11:56:29;100249.03;;;21.90;44.70
5522;BME280;2783;48.730;8.006;2024-03-22T11:59:00;100243.63;;;21.78;44.79
5522;BME280;2783;48.730;8.006;2024-03-22T12:01:26;100248.41;;;21.74;44.61
5522;BME280;2783;48.730;8.006;2024-03-22T12:03:52;100246.50;;;21.64;43.92
5522;BME280;2783;48.730;8.006;2024-03-22T12:06:17;100235.31;;;21.45;45.15
5522;BME280;2783;48.730;8.006;2024-03-22T12:08:43;100222.50;;;21.47;46.03
5522;BME280;2783;48.730;8.006;2024-03-22T12:11:09;100225.16;;;21.36;45.63
5522;BME280;2783;48.730;8.006;2024-03-22T12:13:35;100209.81;;;21.24;46.48
5522;BME280;2783;48.730;8.006;2024-03-22T12:16:01;100202.91;;;21.20;46.67
5522;BME280;2783;48.730;8.006;2024-03-22T12:18:27;100205.13;;;21.38;47.20
5522;BME280;2783;48.730;8.006;2024-03-22T12:20:53;100202.78;;;21.57;47.22
5522;BME280;2783;48.730;8.006;2024-03-22T12:23:18;100198.59;;;21.77;46.40
5522;BME280;2783;48.730;8.006;2024-03-22T12:25:44;100199.72;;;22.09;47.44
5522;BME280;2783;48.730;8.006;2024-03-22T12:28:09;100198.53;;;22.24;45.30
5522;BME280;2783;48.730;8.006;2024-03-22T12:30:34;100193.91;;;22.37;47.01
5522;BME280;2783;48.730;8.006;2024-03-22T12:33:01;100190.09;;;22.51;46.72
5522;BME280;2783;48.730;8.006;2024-03-22T12:35:26;100187.75;;;22.46;45.17
5522;BME280;2783;48.730;8.006;2024-03-22T12:37:52;100189.25;;;22.50;45.77
5522;BME280;2783;48.730;8.006;2024-03-22T12:40:17;100183.59;;;22.53;45.57
5522;BME280;2783;48.730;8.006;2024-03-22T12:42:43;100178.34;;;22.39;44.72
5522;BME280;2783;48.730;8.006;2024-03-22T12:45:09;100184.25;;;22.22;45.26
5522;BME280;2783;48.730;8.006;2024-03-22T12:47:34;100177.19;;;22.08;44.99
5522;BME280;2783;48.730;8.006;2024-03-22T12:49:59;100175.78;;;21.92;46.18
5522;BME280;2783;48.730;8.006;2024-03-22T12:52:25;100169.09;;;21.85;45.42
5522;BME280;2783;48.730;8.006;2024-03-22T12:54:50;100168.03;;;21.75;46.39
5522;BME280;2783;48.730;8.006;2024-03-22T12:57:16;100169.56;;;21.79;47.23
5522;BME280;2783;48.730;8.006;2024-03-22T12:59:41;100163.72;;;21.72;47.23